Time;durP1;ratioP1;P1;durP2;ratioP2;P2;SDS_P1;SDS_P2;PMS_P1;PMS_P2;Temp;Humidity;BMP_temperature;BMP_pressure;BME280_temperature;BME280_humidity;BME280_pressure;Samples;Min_cycle;Max_cycle;Signal;HPM_P1;HPM_P2
2022/12/23 00:00:07;;;;;;;19.13;4.35;;;;;;;-144.47;100.00;66177.50;4995471;28;20058;-69
2022/12/23 00:02:32;;;;;;;11.32;3.65;;;;;;;-144.47;100.00;66173.50;4993076;28;20041;-70
2022/12/23 00:04:58;;;;;;;7.68;4.03;;;;;;;-144.47;100.00;66173.50;4989542;28;20346;-69
2022/12/23 00:07:23;;;;;;;7.57;4.38;;;;;;;-144.47;100.00;66139.63;4991719;28;20041;-68
2022/12/23 00:09:48;;;;;;;6.88;3.28;;;;;;;-144.47;100.00;66137.63;4995365;28;20665;-71
2022/12/23 00:15:06;;;;;;;11.13;3.45;;;;;;;-144.47;100.00;66173.50;4996918;28;20040;-69
2022/12/23 00:17:39;;;;;;;9.98;3.67;;;;;;;-144.47;100.00;66189.47;4991754;28;20076;-68
2022/12/23 00:20:06;;;;;;;11.77;3.58;;;;;;;-144.47;100.00;66161.56;4997935;28;20022;-68
2022/12/23 00:25:15;;;;;;;7.28;3.25;;;;;;;-144.47;100.00;66161.56;4991418;28;20053;-68
2022/12/23 00:27:41;;;;;;;7.35;3.50;;;;;;;-144.47;100.00;66153.56;4994475;28;20519;-69
2022/12/23 00:30:09;;;;;;;9.00;3.38;;;;;;;-144.47;100.00;66121.66;4993317;28;20507;-71
2022/12/23 00:32:35;;;;;;;8.13;2.72;;;;;;;-144.47;100.00;66173.50;4995149;28;20445;-68
2022/12/23 00:35:00;;;;;;;6.40;3.03;;;;;;;-144.47;100.00;66163.53;4995922;28;20026;-67
2022/12/23 00:37:25;;;;;;;5.97;3.03;;;;;;;-144.47;100.00;66123.66;4993421;28;20629;-68
2022/12/23 00:42:53;;;;;;;14.38;2.97;;;;;;;-144.47;100.00;66175.50;4996432;28;20080;-68
2022/12/23 00:45:18;;;;;;;5.03;2.45;;;;;;;-144.47;100.00;66131.66;4988022;28;20915;-68
2022/12/23 00:50:31;;;;;;;5.13;2.50;;;;;;;-144.47;100.00;66101.72;4988609;28;20033;-68
2022/12/23 00:52:57;;;;;;;6.28;2.85;;;;;;;-144.47;100.00;66125.66;4994262;28;20034;-65
2022/12/23 00:55:23;;;;;;;6.63;2.55;;;;;;;-144.47;100.00;66145.59;4989677;28;20034;-69
2022/12/23 00:57:48;;;;;;;6.07;2.35;;;;;;;-144.47;100.00;66161.56;4994824;28;20048;-68
2022/12/23 01:00:14;;;;;;;5.05;2.35;;;;;;;-144.47;100.00;66177.50;5000800;28;20033;-67
2022/12/23 01:05:36;;;;;;;5.70;2.15;;;;;;;-144.47;99.92;66111.69;4994558;28;20096;-69
2022/12/23 01:08:10;;;;;;;4.20;1.90;;;;;;;-144.47;99.97;66121.66;4997691;28;20038;-66
2022/12/23 01:10:39;;;;;;;4.03;2.13;;;;;;;-144.47;100.00;66121.66;4994037;28;20046;-70
2022/12/23 01:13:05;;;;;;;3.40;1.80;;;;;;;-144.47;100.00;66121.66;4995706;28;20039;-68
2022/12/23 01:15:31;;;;;;;4.40;1.95;;;;;;;-144.47;100.00;66121.66;4997164;28;20056;-69
2022/12/23 01:17:57;;;;;;;5.13;1.75;;;;;;;-144.47;100.00;66121.66;4995268;28;20421;-68
2022/12/23 01:20:23;;;;;;;5.03;2.10;;;;;;;-144.47;100.00;66133.63;4994605;28;20034;-67
2022/12/23 01:22:48;;;;;;;5.07;1.67;;;;;;;-144.47;100.00;66111.69;4995853;28;20789;-70
2022/12/23 01:25:14;;;;;;;5.50;1.63;;;;;;;-144.47;100.00;66155.56;4992559;28;20030;-67
2022/12/23 01:27:39;;;;;;;4.30;1.55;;;;;;;-144.47;100.00;66127.66;4996455;28;20038;-68
2022/12/23 01:30:05;;;;;;;6.88;2.25;;;;;;;-144.47;100.00;66131.66;4993575;28;20061;-68
2022/12/23 01:32:30;;;;;;;5.93;1.90;;;;;;;-144.47;100.00;66153.56;4995628;28;20659;-67
2022/12/23 01:34:56;;;;;;;8.38;1.60;;;;;;;-144.47;100.00;66147.59;5009445;28;20026;-68
2022/12/23 01:37:21;;;;;;;3.72;1.55;;;;;;;-144.47;100.00;66119.69;5014871;28;20372;-66
2022/12/23 01:39:47;;;;;;;5.85;2.00;;;;;;;-144.47;100.00;66133.63;5011106;28;20072;-69
2022/12/23 01:45:00;;;;;;;7.38;1.95;;;;;;;-144.47;100.00;66117.69;5027034;28;20715;-69
2022/12/23 01:47:39;;;;;;;5.80;1.70;;;;;;;-144.47;100.00;66159.56;5010601;28;20399;-68
2022/12/23 01:50:15;;;;;;;4.68;1.73;;;;;;;-144.47;100.00;66141.63;5007271;28;20033;-68
2022/12/23 01:53:05;;;;;;;6.50;1.75;;;;;;;-144.47;100.00;66145.59;5026114;28;20025;-66
2022/12/23 01:55:35;;;;;;;5.50;1.60;;;;;;;-144.47;100.00;66117.69;5023381;28;20029;-66
2022/12/23 01:58:39;;;;;;;6.75;1.95;;;;;;;-144.47;100.00;66181.50;5024065;28;20037;-66
2022/12/23 02:03:54;;;;;;;8.90;1.88;;;;;;;-144.47;100.00;66129.66;5021686;28;20053;-70
2022/12/23 02:09:18;;;;;;;6.30;1.60;;;;;;;-144.47;100.00;66155.56;5016374;28;20040;-69
2022/12/23 02:11:43;;;;;;;5.35;1.60;;;;;;;-144.47;100.00;66139.63;5010389;28;20030;-66
2022/12/23 02:17:09;;;;;;;13.13;2.00;;;;;;;-144.47;100.00;66157.56;5020605;28;20514;-66
2022/12/23 02:20:02;;;;;;;7.68;1.60;;;;;;;-144.47;100.00;66167.53;5018075;28;20477;-69
2022/12/23 02:22:55;;;;;;;10.50;1.80;;;;;;;-144.47;100.00;66143.59;5031314;28;20123;-69
2022/12/23 02:26:35;;;;;;;5.30;2.00;;;;;;;-144.47;100.00;66201.44;5030681;28;20025;-69
2022/12/23 02:29:28;;;;;;;6.45;2.03;;;;;;;-144.47;100.00;66211.41;4882745;29;20037;-69
2022/12/23 02:32:04;;;;;;;6.40;1.67;;;;;;;-144.47;100.00;66183.47;4929166;29;20152;-69
2022/12/23 02:34:52;;;;;;;10.48;1.70;;;;;;;-144.47;100.00;66185.47;5019498;28;20033;-68
2022/12/23 02:37:36;;;;;;;9.13;1.52;;;;;;;-144.47;100.00;66217.38;5021241;28;20450;-70
2022/12/23 02:40:21;;;;;;;9.07;1.60;;;;;;;-144.47;100.00;66209.41;5024500;28;20082;-69
2022/12/23 02:43:02;;;;;;;10.20;1.35;;;;;;;-144.47;100.00;66217.38;5022146;28;20055;-69
2022/12/23 02:45:33;;;;;;;5.78;1.15;;;;;;;-144.47;100.00;66229.34;5007118;28;20032;-69
2022/12/23 02:48:12;;;;;;;6.68;1.25;;;;;;;-144.47;100.00;66227.34;5016002;28;20033;-68
2022/12/23 02:50:40;;;;;;;6.38;1.40;;;;;;;-144.47;100.00;66239.31;5018169;28;20022;-69
2022/12/23 02:53:23;;;;;;;3.53;1.33;;;;;;;-144.47;100.00;66243.31;5023852;28;20033;-68
2022/12/23 02:55:52;;;;;;;5.47;1.50;;;;;;;-144.47;100.00;66267.22;5022426;28;20097;-70
2022/12/23 02:58:21;;;;;;;4.78;1.42;;;;;;;-144.47;100.00;66267.22;5011577;28;20064;-67
2022/12/23 03:00:48;;;;;;;7.70;1.83;;;;;;;-144.47;100.00;66291.16;5021706;28;20112;-68
2022/12/23 03:03:15;;;;;;;5.93;1.40;;;;;;;-144.47;100.00;66317.09;5016020;28;20048;-69
2022/12/23 03:05:46;;;;;;;7.63;1.48;;;;;;;-144.47;100.00;66283.19;5020286;28;20086;-68
2022/12/23 03:08:15;;;;;;;3.75;1.00;;;;;;;-144.47;100.00;66301.13;5000232;28;20073;-67
2022/12/23 03:11:04;;;;;;;5.07;1.25;;;;;;;-144.47;100.00;66360.94;5022562;28;20212;-67
2022/12/23 03:13:57;;;;;;;6.00;1.33;;;;;;;-144.47;100.00;66327.06;5021223;28;20036;-68
2022/12/23 03:16:29;;;;;;;6.38;1.35;;;;;;;-144.47;100.00;66364.94;5008807;28;20018;-67
2022/12/23 03:19:31;;;;;;;7.45;1.42;;;;;;;-144.47;100.00;66337.03;5017050;28;20030;-65
2022/12/23 03:22:34;;;;;;;4.65;1.40;;;;;;;-144.47;100.00;66360.94;5017042;28;20034;-70
2022/12/23 03:25:12;;;;;;;5.00;1.40;;;;;;;-144.47;100.00;66396.84;5016422;28;20033;-68
2022/12/23 03:27:47;;;;;;;2.60;1.17;;;;;;;-144.47;100.00;66384.88;5019017;28;20087;-67
2022/12/23 03:30:17;;;;;;;3.13;1.13;;;;;;;-144.47;100.00;66333.03;5015560;28;20262;-70
2022/12/23 03:32:52;;;;;;;8.88;1.05;;;;;;;-144.47;100.00;66362.94;5011387;28;20026;-69
2022/12/23 03:35:24;;;;;;;3.70;1.30;;;;;;;-144.47;100.00;66337.03;5014840;28;20515;-69
2022/12/23 03:37:53;;;;;;;3.65;1.10;;;;;;;-144.47;100.00;66349.00;5030468;28;20048;-67
2022/12/23 03:40:25;;;;;;;6.10;1.50;;;;;;;-144.47;100.00;66313.09;5025287;23;20049;-69
2022/12/23 03:43:04;;;;;;;4.47;1.30;;;;;;;-144.47;100.00;66329.03;5006496;28;20049;-71
2022/12/23 03:45:37;;;;;;;2.05;0.80;;;;;;;-144.47;100.00;66301.13;5007300;28;20021;-70
2022/12/23 03:48:20;;;;;;;4.05;0.90;;;;;;;-144.47;100.00;66293.16;5006770;28;20025;-69
2022/12/23 03:50:49;;;;;;;3.40;0.95;;;;;;;-144.47;100.00;66275.22;5007633;28;20050;-71
2022/12/23 03:53:21;;;;;;;3.70;0.90;;;;;;;-144.47;100.00;66267.22;5007599;28;20021;-70
2022/12/23 03:55:55;;;;;;;4.22;1.15;;;;;;;-144.47;100.00;66269.22;5016088;28;20381;-71
2022/12/23 03:58:20;;;;;;;8.90;1.45;;;;;;;-144.47;100.00;66287.16;5020716;28;20052;-67
2022/12/23 04:01:04;;;;;;;2.92;1.17;;;;;;;-144.47;100.00;66261.25;5025116;28;20037;-70
2022/12/23 04:03:38;;;;;;;5.43;0.90;;;;;;;-144.47;100.00;66243.31;5020559;28;20044;-69
2022/12/23 04:06:08;;;;;;;3.00;0.90;;;;;;;-144.47;100.00;66215.38;5004346;28;20033;-68
2022/12/23 04:08:37;;;;;;;1.92;0.90;;;;;;;-144.47;100.00;66213.41;5011565;28;20057;-68
2022/12/23 04:11:03;;;;;;;2.90;0.90;;;;;;;-144.47;100.00;66213.41;5026596;28;20037;-69
2022/12/23 04:13:30;;;;;;;3.75;1.02;;;;;;;-144.47;99.75;66185.47;5027598;28;20044;-66
2022/12/23 04:16:00;;;;;;;2.25;0.70;;;;;;;-144.47;99.40;66209.41;5013606;28;20068;-70
2022/12/23 04:18:26;;;;;;;3.42;0.90;;;;;;;-144.47;98.92;66153.56;5019802;28;20087;-70
2022/12/23 04:20:51;;;;;;;0.88;0.60;;;;;;;-144.47;98.68;66153.56;5014028;28;20022;-71
2022/12/23 04:23:17;;;;;;;1.05;0.73;;;;;;;-144.47;98.62;66139.63;5027257;28;20087;-68
2022/12/23 04:25:42;;;;;;;2.13;0.70;;;;;;;-144.47;98.31;66157.56;5020136;28;20510;-71
2022/12/23 04:28:07;;;;;;;1.23;0.77;;;;;;;-144.47;98.36;66131.66;5002773;28;20021;-70
2022/12/23 04:30:33;;;;;;;1.83;0.95;;;;;;;-144.47;98.11;66113.69;5007627;28;20132;-67
2022/12/23 04:32:58;;;;;;;2.05;0.85;;;;;;;-144.47;98.13;66117.69;5017907;28;20475;-72
2022/12/23 04:35:23;;;;;;;2.88;1.27;;;;;;;-144.47;98.35;66101.72;5014706;28;20098;-66
2022/12/23 04:37:49;;;;;;;0.82;0.60;;;;;;;-144.47;98.25;66125.66;5021655;28;20041;-69
2022/12/23 04:40:14;;;;;;;1.30;0.77;;;;;;;-144.47;98.09;66121.66;5015341;28;20025;-70
2022/12/23 04:42:39;;;;;;;2.95;0.70;;;;;;;-144.47;98.01;66125.66;5017628;28;20053;-70
2022/12/23 04:45:05;;;;;;;1.05;0.52;;;;;;;-144.47;98.11;66083.78;5029486;28;20511;-69
2022/12/23 04:47:31;;;;;;;1.73;0.75;;;;;;;-144.47;98.06;66109.72;5017869;28;20105;-72
2022/12/23 04:49:57;;;;;;;4.47;0.88;;;;;;;-144.47;98.02;66073.81;5023190;28;20196;-70
2022/12/23 04:52:22;;;;;;;2.60;0.80;;;;;;;-144.47;98.30;66125.66;5021548;28;20021;-67
2022/12/23 04:54:48;;;;;;;2.60;0.73;;;;;;;-144.47;98.06;66093.75;5015371;28;20048;-71
2022/12/23 04:57:15;;;;;;;3.92;0.80;;;;;;;-144.47;97.87;66097.75;5017826;28;20498;-71
2022/12/23 04:59:40;;;;;;;0.98;0.73;;;;;;;-144.47;97.86;66105.72;5016585;28;20067;-70
2022/12/23 05:02:05;;;;;;;1.38;0.95;;;;;;;-144.47;97.57;66069.84;5019337;28;20022;-68
2022/12/23 05:04:31;;;;;;;2.00;0.90;;;;;;;-144.47;97.49;66079.81;5012688;28;20418;-71
2022/12/23 05:06:57;;;;;;;1.58;0.60;;;;;;;-144.47;97.24;66057.88;4995408;28;20437;-68
2022/12/23 05:09:22;;;;;;;1.08;0.63;;;;;;;-144.47;97.24;66059.84;5008822;28;20044;-66
2022/12/23 05:11:47;;;;;;;1.92;0.70;;;;;;;-144.47;97.22;66101.72;5015471;28;20397;-71
2022/12/23 05:14:13;;;;;;;1.63;0.73;;;;;;;-144.47;96.88;66029.94;5023489;28;20048;-66
2022/12/23 05:16:38;;;;;;;0.80;0.60;;;;;;;-144.47;96.84;66039.91;5021162;28;20355;-71
2022/12/23 05:19:04;;;;;;;3.78;0.80;;;;;;;-144.47;96.87;66021.97;5016050;28;20374;-68
2022/12/23 05:21:29;;;;;;;2.47;0.80;;;;;;;-144.47;96.74;66014.00;5016575;28;20093;-70
2022/12/23 05:23:55;;;;;;;3.03;0.60;;;;;;;-144.47;96.62;66029.94;5022766;28;20129;-70
2022/12/23 05:26:21;;;;;;;3.90;1.00;;;;;;;-144.47;96.58;66077.81;5018520;28;20095;-70
2022/12/23 05:28:46;;;;;;;3.38;0.85;;;;;;;-144.47;96.41;66012.00;5008999;28;20499;-71
2022/12/23 05:31:12;;;;;;;0.52;0.50;;;;;;;-144.47;96.19;66041.91;5014238;28;20452;-66
2022/12/23 05:33:39;;;;;;;3.05;0.88;;;;;;;-144.47;95.94;66029.94;5013806;28;20029;-69
2022/12/23 05:36:04;;;;;;;3.33;0.95;;;;;;;-144.47;95.96;66008.03;5029487;28;20125;-67
2022/12/23 05:38:30;;;;;;;0.50;0.50;;;;;;;-144.47;95.97;65998.06;5028858;28;20188;-68
2022/12/23 05:40:56;;;;;;;2.28;0.70;;;;;;;-144.47;95.98;65982.09;5025976;28;20025;-70
2022/12/23 05:43:22;;;;;;;1.38;0.80;;;;;;;-144.47;96.00;65974.13;5015577;28;20029;-67
2022/12/23 05:45:48;;;;;;;0.98;0.65;;;;;;;-144.47;96.05;65994.06;5028348;28;20124;-71
2022/12/23 05:48:13;;;;;;;4.95;0.80;;;;;;;-144.47;95.93;65976.13;5008514;28;20033;-67
2022/12/23 05:50:39;;;;;;;5.00;1.23;;;;;;;-144.47;95.65;65942.22;5008919;28;20088;-69
2022/12/23 05:53:05;;;;;;;1.27;0.70;;;;;;;-144.47;95.99;65978.13;5025299;28;20117;-70
2022/12/23 05:55:31;;;;;;;3.58;0.77;;;;;;;-144.47;95.78;65960.16;5018111;28;20546;-66
2022/12/23 05:57:56;;;;;;;3.72;0.88;;;;;;;-144.47;95.73;65940.22;5024825;28;20029;-70
2022/12/23 06:00:22;;;;;;;2.63;0.73;;;;;;;-144.47;95.65;65934.25;5028512;28;20104;-69
2022/12/23 06:02:48;;;;;;;1.40;0.80;;;;;;;-144.47;95.65;65948.22;5023221;28;20029;-71
2022/12/23 06:05:13;;;;;;;1.55;0.88;;;;;;;-144.47;95.59;65950.19;5006357;28;20049;-67
2022/12/23 06:07:39;;;;;;;1.60;0.70;;;;;;;-144.47;95.52;65952.19;5001167;28;20450;-69
2022/12/23 06:10:06;;;;;;;1.08;0.60;;;;;;;-144.47;95.35;65962.16;5028890;28;20021;-70
2022/12/23 06:12:32;;;;;;;0.63;0.63;;;;;;;-144.47;95.47;65952.19;5026202;28;20471;-69
2022/12/23 06:14:57;;;;;;;1.02;0.70;;;;;;;-144.47;95.08;65896.38;5018021;28;20030;-71
2022/12/23 06:17:22;;;;;;;2.67;1.23;;;;;;;-144.47;95.35;65928.28;5024867;28;20522;-69
2022/12/23 06:19:48;;;;;;;1.63;0.65;;;;;;;-144.47;95.17;65940.22;5028258;28;20053;-71
2022/12/23 06:22:14;;;;;;;1.33;0.50;;;;;;;-144.47;95.19;65918.31;5028505;28;20021;-69
2022/12/23 06:24:39;;;;;;;0.70;0.70;;;;;;;-144.47;95.34;65894.38;5028933;28;20402;-68
2022/12/23 06:27:04;;;;;;;3.35;0.73;;;;;;;-144.47;95.15;65882.41;5017777;28;20022;-71
2022/12/23 06:29:30;;;;;;;1.27;0.73;;;;;;;-144.47;95.30;65884.41;5011155;28;20393;-66
2022/12/23 06:31:55;;;;;;;1.33;0.80;;;;;;;-144.47;95.41;65888.41;5010354;28;20099;-69
2022/12/23 06:34:20;;;;;;;1.20;0.70;;;;;;;-144.47;95.56;65854.50;5006975;28;20038;-65
2022/12/23 06:36:46;;;;;;;2.25;0.80;;;;;;;-144.47;95.55;65912.31;5009824;28;20089;-68
2022/12/23 06:39:11;;;;;;;1.77;0.93;;;;;;;-144.47;95.56;65878.44;5020896;28;20506;-69
2022/12/23 06:41:37;;;;;;;2.80;0.95;;;;;;;-144.47;95.13;65882.41;5025263;28;20037;-68
2022/12/23 06:44:02;;;;;;;1.35;0.70;;;;;;;-144.47;95.29;65870.44;5026335;28;20057;-70
2022/12/23 06:46:28;;;;;;;1.27;0.88;;;;;;;-144.47;95.44;65874.44;5024223;28;20051;-70
2022/12/23 06:48:53;;;;;;;0.75;0.60;;;;;;;-144.47;95.40;65870.44;5017287;28;20037;-69
2022/12/23 06:51:19;;;;;;;1.00;0.80;;;;;;;-144.47;95.33;65876.44;5002987;28;20549;-67
2022/12/23 06:53:44;;;;;;;1.90;0.85;;;;;;;-144.47;95.42;65838.53;5000968;28;20473;-69
2022/12/23 06:56:09;;;;;;;5.00;0.80;;;;;;;-144.47;95.35;65854.50;5007349;28;20025;-67
2022/12/23 06:58:35;;;;;;;3.03;0.85;;;;;;;-144.47;95.29;65822.59;5011696;28;20037;-69
2022/12/23 07:01:00;;;;;;;2.58;0.80;;;;;;;-144.47;94.93;65808.63;5014725;28;20574;-67
2022/12/23 07:03:25;;;;;;;4.03;1.10;;;;;;;-144.47;94.90;65812.63;5017329;28;20117;-69
2022/12/23 07:05:51;;;;;;;1.40;0.70;;;;;;;-144.47;94.85;65834.56;5009183;28;20022;-68
2022/12/23 07:08:17;;;;;;;1.00;0.60;;;;;;;-144.47;94.97;65814.63;5010662;28;20427;-68
2022/12/23 07:10:43;;;;;;;3.97;0.88;;;;;;;-144.47;95.29;65800.66;5021074;28;20141;-69
2022/12/23 07:13:09;;;;;;;1.92;0.82;;;;;;;-144.47;95.41;65804.66;5014802;28;20101;-66
2022/12/23 07:15:35;;;;;;;2.95;0.90;;;;;;;-144.47;95.40;65828.56;5016224;28;20119;-68
2022/12/23 07:18:01;;;;;;;1.63;0.80;;;;;;;-144.47;95.55;65770.75;5007695;28;20085;-68
2022/12/23 07:20:26;;;;;;;1.30;0.70;;;;;;;-144.47;95.76;65790.69;5009961;28;20058;-70
2022/12/23 07:22:55;;;;;;;2.92;0.80;;;;;;;-144.47;95.93;65746.84;5005003;28;20034;-70
2022/12/23 07:25:21;;;;;;;2.38;0.90;;;;;;;-144.47;96.21;65782.72;5028109;28;20433;-67
2022/12/23 07:27:47;;;;;;;3.45;0.98;;;;;;;-144.47;96.10;65774.75;5017739;28;20025;-69
2022/12/23 07:30:12;;;;;;;3.15;0.90;;;;;;;-144.47;96.12;65740.84;5019882;28;20040;-69
2022/12/23 07:32:38;;;;;;;2.47;0.90;;;;;;;-144.47;96.17;65750.81;5021515;28;20108;-67
2022/12/23 07:35:04;;;;;;;2.25;0.90;;;;;;;-144.47;96.22;65722.91;5006840;28;20615;-68
2022/12/23 07:37:29;;;;;;;2.97;1.00;;;;;;;-144.47;96.37;65726.91;5024561;28;20072;-69
2022/12/23 07:39:54;;;;;;;1.90;1.02;;;;;;;-144.47;96.45;65699.00;5017064;28;20091;-71
2022/12/23 07:42:20;;;;;;;3.75;1.30;;;;;;;-144.47;96.60;65647.16;5007526;28;20125;-67
2022/12/23 07:44:45;;;;;;;2.67;1.20;;;;;;;-144.47;96.46;65625.22;5008634;28;20022;-70
2022/12/23 07:47:11;;;;;;;2.65;1.25;;;;;;;-144.47;97.05;65549.47;5020644;28;20054;-68
2022/12/23 07:49:39;;;;;;;2.30;1.25;;;;;;;-144.47;96.44;65455.78;5025002;28;20057;-68
2022/12/23 07:52:04;;;;;;;4.15;1.13;;;;;;;-144.47;96.39;65421.88;5017467;28;20510;-70
2022/12/23 07:54:29;;;;;;;2.50;1.30;;;;;;;-144.47;96.24;65388.00;5019108;28;20101;-67
2022/12/23 07:56:56;;;;;;;3.63;1.10;;;;;;;-144.47;96.10;65362.06;5011118;28;20117;-70
2022/12/23 07:59:25;;;;;;;3.58;1.05;;;;;;;-144.47;96.12;65300.28;5010381;28;20216;-70
2022/12/23 08:01:50;;;;;;;3.03;1.40;;;;;;;-144.47;95.80;65278.34;5013529;28;20427;-66
2022/12/23 08:04:16;;;;;;;3.50;1.20;;;;;;;-144.47;95.64;65286.31;5001773;28;20037;-69
2022/12/23 08:06:41;;;;;;;6.30;1.30;;;;;;;-144.47;95.45;65312.25;5021371;28;20041;-69
2022/12/23 08:09:08;;;;;;;1.52;1.00;;;;;;;-144.47;94.94;65222.53;5011955;28;20112;-67
2022/12/23 08:11:33;;;;;;;2.50;1.15;;;;;;;-144.47;94.73;65096.94;5010692;28;20116;-70
2022/12/23 08:13:59;;;;;;;3.78;1.40;;;;;;;-144.47;94.49;65055.09;5011177;28;20033;-69
2022/12/23 08:16:24;;;;;;;1.13;0.90;;;;;;;-144.47;94.26;64897.63;5011433;28;20072;-69
2022/12/23 08:18:49;;;;;;;2.83;1.10;;;;;;;-144.47;94.18;64752.13;5019761;28;20109;-69
2022/12/23 08:21:18;;;;;;;1.63;1.00;;;;;;;-144.47;94.01;64510.97;5001053;28;20038;-67
2022/12/23 08:23:45;;;;;;;1.75;0.90;;;;;;;-144.47;93.64;64343.56;5023023;28;20033;-72
2022/12/23 08:26:14;;;;;;;1.63;0.90;;;;;;;-144.47;93.68;64251.88;5013901;28;20034;-69
2022/12/23 08:28:41;;;;;;;5.85;1.15;;;;;;;-144.47;93.65;64259.84;5010044;28;20026;-68
2022/12/23 08:31:08;;;;;;;4.38;1.48;;;;;;;-144.47;93.61;64156.22;5009153;28;20041;-71
2022/12/23 08:33:37;;;;;;;4.05;1.50;;;;;;;-144.47;93.52;63960.94;5005321;28;20104;-71
2022/12/23 08:36:03;;;;;;;2.67;1.20;;;;;;;-144.47;93.43;63857.34;5011270;28;20175;-68
2022/12/23 08:38:28;;;;;;;4.32;1.20;;;;;;;-144.47;93.45;63933.06;5001925;28;20034;-66
2022/12/23 08:40:54;;;;;;;3.05;1.13;;;;;;;-144.47;93.49;63703.91;5007775;28;20108;-68
2022/12/23 08:43:19;;;;;;;3.58;1.10;;;;;;;-144.47;93.11;63632.19;5021330;28;20036;-66
2022/12/23 08:45:44;;;;;;;2.90;1.10;;;;;;;-144.47;93.18;63383.13;5021612;28;20610;-69
2022/12/23 08:48:10;;;;;;;2.25;1.10;;;;;;;-144.47;92.86;62912.97;5021668;28;20022;-69
2022/12/23 08:50:43;;;;;;;3.33;1.60;;;;;;;-144.47;92.63;62707.78;5014599;28;20167;-70
2022/12/23 08:53:10;;;;;;;6.65;1.10;;;;;;;-144.47;92.34;62695.84;5021304;28;20432;-66
2022/12/23 08:55:40;;;;;;;2.58;1.13;;;;;;;-144.47;91.97;62448.84;5008806;28;20033;-70
2022/12/23 08:58:07;;;;;;;1.90;0.90;;;;;;;-144.47;91.83;62375.16;5018586;28;20032;-71
2022/12/23 09:00:33;;;;;;;4.45;1.50;;;;;;;-144.47;91.85;62199.91;5012565;28;20022;-69
2022/12/23 09:02:58;;;;;;;2.00;0.90;;;;;;;-144.47;91.79;62176.00;5007743;28;20079;-70
2022/12/23 09:05:24;;;;;;;3.55;0.98;;;;;;;-144.47;91.47;61960.91;5002708;28;20131;-67
2022/12/23 09:07:49;;;;;;;2.20;1.30;;;;;;;-144.47;91.46;61789.66;5004760;28;20205;-69
2022/12/23 09:10:15;;;;;;;2.40;1.08;;;;;;;-144.47;91.44;61877.25;5019426;28;20495;-72
2022/12/23 09:12:40;;;;;;;8.27;1.10;;;;;;;-144.47;91.52;61715.97;5009655;28;20030;-70
2022/12/23 09:15:06;;;;;;;4.03;1.20;;;;;;;-144.47;91.48;61526.78;5011652;28;20579;-71
2022/12/23 09:17:32;;;;;;;4.47;1.48;;;;;;;-144.47;91.70;61544.72;5006777;28;20121;-70
2022/12/23 09:19:57;;;;;;;1.70;0.93;;;;;;;-144.47;92.04;61317.72;5010776;28;20164;-75
2022/12/23 09:22:23;;;;;;;2.08;1.05;;;;;;;-144.47;92.12;61190.28;5004314;28;20125;-69
2022/12/23 09:24:48;;;;;;;2.53;1.20;;;;;;;-144.47;92.21;61033.00;5014231;28;20022;-65
2022/12/23 09:27:13;;;;;;;3.90;1.20;;;;;;;-144.47;92.20;60851.81;5017607;28;20042;-68
2022/12/23 09:29:39;;;;;;;2.95;1.30;;;;;;;-144.47;91.82;60835.91;5017166;28;20475;-69
2022/12/23 09:32:05;;;;;;;5.53;1.38;;;;;;;-144.47;91.60;60814.00;5028503;28;20045;-72
2022/12/23 09:34:30;;;;;;;2.88;1.52;;;;;;;-144.47;91.40;60732.38;5015648;28;20025;-68
2022/12/23 09:36:56;;;;;;;3.30;1.55;;;;;;;-144.47;91.36;60662.69;5022767;28;20484;-69
2022/12/23 09:39:22;;;;;;;2.90;1.33;;;;;;;-144.47;90.97;60660.72;5016425;28;20021;-70
2022/12/23 09:42:05;;;;;;;3.00;1.33;;;;;;;-144.47;91.00;60706.50;5018164;28;20628;-66
2022/12/23 09:44:48;;;;;;;3.13;1.20;;;;;;;-144.47;91.02;60728.41;5017920;23;20058;-67
2022/12/23 09:47:18;;;;;;;3.38;1.50;;;;;;;-144.47;90.90;60626.88;4989868;28;20034;-68
2022/12/23 09:49:59;;;;;;;4.40;1.63;;;;;;;-144.47;90.75;60654.75;4990502;28;20030;-66
2022/12/23 09:52:35;;;;;;;2.78;1.50;;;;;;;-144.47;90.34;60618.91;4988866;28;20029;-66
2022/12/23 09:55:00;;;;;;;4.20;1.65;;;;;;;-144.47;90.15;60525.34;4989066;28;20113;-69
2022/12/23 09:57:35;;;;;;;4.40;1.77;;;;;;;-144.47;89.85;60489.50;4985542;28;20134;-66
2022/12/23 10:00:12;;;;;;;6.47;1.77;;;;;;;-144.47;89.31;60485.53;4985367;28;20104;-66
2022/12/23 10:03:13;;;;;;;5.05;1.98;;;;;;;-144.47;89.21;60475.59;4989861;28;20370;-67
2022/12/23 10:06:06;;;;;;;2.53;1.30;;;;;;;-144.47;89.25;60644.78;4982272;28;20038;-69
2022/12/23 10:08:35;;;;;;;4.10;1.67;;;;;;;-144.47;89.25;60678.63;4988304;28;20050;-66
2022/12/23 10:11:15;;;;;;;3.88;1.60;;;;;;;-144.47;89.09;60690.56;4988769;28;20022;-68
2022/12/23 10:13:44;;;;;;;3.72;1.73;;;;;;;-144.47;89.04;60656.72;4991031;28;20042;-67
2022/12/23 10:16:19;;;;;;;10.85;2.08;;;;;;;-144.47;89.26;60624.88;4982082;28;20038;-68
2022/12/23 10:19:21;;;;;;;3.95;1.65;;;;;;;-144.47;89.02;60565.16;4990955;28;20026;-68
2022/12/23 10:21:51;;;;;;;7.85;2.53;;;;;;;-144.47;89.01;60517.38;4980688;28;20101;-69
2022/12/23 10:24:22;;;;;;;6.18;2.15;;;;;;;-144.47;88.98;60561.19;4990730;28;20030;-68
2022/12/23 10:26:56;;;;;;;4.20;1.80;;;;;;;-144.47;88.99;60583.06;4986175;28;20031;-68
2022/12/23 10:29:22;;;;;;;4.55;1.92;;;;;;;-144.47;88.99;60599.00;4988702;28;20057;-68
2022/12/23 10:32:15;;;;;;;4.70;2.30;;;;;;;-144.47;88.88;60501.47;4985901;28;20033;-68
2022/12/23 10:35:03;;;;;;;3.83;1.65;;;;;;;-144.47;88.87;60489.50;4989489;28;20393;-66
2022/12/23 10:37:33;;;;;;;5.30;2.07;;;;;;;-144.47;88.58;60463.63;4989415;28;20053;-68
2022/12/23 10:40:21;;;;;;;6.47;2.40;;;;;;;-144.47;88.65;60449.69;4991072;28;20072;-70
2022/12/23 10:43:25;;;;;;;3.58;1.67;;;;;;;-144.47;88.39;60366.09;4985714;28;20041;-68
2022/12/23 10:46:20;;;;;;;5.40;1.90;;;;;;;-144.47;87.74;60320.31;4969820;28;20044;-68
2022/12/23 10:49:19;;;;;;;4.30;1.70;;;;;;;-144.47;87.52;60292.44;4974509;28;20076;-69
2022/12/23 10:51:49;;;;;;;3.50;1.42;;;;;;;-144.47;86.95;60210.84;4990376;28;20499;-69
2022/12/23 10:54:19;;;;;;;3.05;1.65;;;;;;;-144.47;86.32;60244.69;4991370;28;20077;-69
2022/12/23 10:56:45;;;;;;;4.07;1.70;;;;;;;-144.47;85.72;60262.59;4987239;28;20031;-66
2022/12/23 10:59:16;;;;;;;2.90;1.45;;;;;;;-144.47;85.74;60352.16;4992786;28;20101;-68
2022/12/23 11:01:46;;;;;;;3.05;1.30;;;;;;;-144.47;85.67;60388.00;4985785;28;20210;-68
2022/12/23 11:04:15;;;;;;;4.05;2.15;;;;;;;-144.47;85.60;60417.84;4986853;28;20046;-68
2022/12/23 11:06:45;;;;;;;2.97;1.27;;;;;;;-144.47;85.80;60475.59;4989679;28;20037;-68
2022/12/23 11:09:20;;;;;;;4.22;1.48;;;;;;;-144.47;85.78;60487.53;4990381;28;20041;-69
2022/12/23 11:11:58;;;;;;;2.28;1.25;;;;;;;-144.47;86.10;60531.31;4990134;28;20026;-69
2022/12/23 11:14:31;;;;;;;2.20;1.10;;;;;;;-144.47;85.85;60463.63;4988331;28;20108;-70
2022/12/23 11:16:56;;;;;;;3.25;1.27;;;;;;;-144.47;85.81;60419.84;4986456;28;20039;-68
2022/12/23 11:19:22;;;;;;;3.47;1.40;;;;;;;-144.47;85.90;60477.56;4988686;28;20097;-69
2022/12/23 11:21:58;;;;;;;3.28;1.13;;;;;;;-144.47;85.83;60431.78;4985758;28;20069;-65
2022/12/23 11:24:27;;;;;;;1.90;1.10;;;;;;;-144.47;85.73;60386.00;4986397;28;20094;-71
2022/12/23 11:27:06;;;;;;;3.60;1.40;;;;;;;-144.47;85.60;60388.00;4986876;28;20014;-67
2022/12/23 11:29:39;;;;;;;3.58;1.42;;;;;;;-144.47;85.62;60316.34;4987163;28;20045;-68
2022/12/23 11:32:17;;;;;;;3.55;1.40;;;;;;;-144.47;85.68;60294.44;4987735;28;20030;-66
2022/12/23 11:34:45;;;;;;;2.80;1.10;;;;;;;-144.47;85.60;60324.28;4981506;28;20424;-68
2022/12/23 11:37:27;;;;;;;6.43;1.48;;;;;;;-144.47;85.68;60310.38;5004023;28;20034;-69
2022/12/23 11:39:52;;;;;;;3.25;1.30;;;;;;;-144.47;85.48;60248.66;4990355;28;20030;-70
2022/12/23 11:42:28;;;;;;;2.83;1.27;;;;;;;-144.47;85.33;60194.91;4988266;28;20022;-69
2022/12/23 11:44:58;;;;;;;3.50;1.40;;;;;;;-144.47;84.93;60175.00;4987698;28;20390;-68
2022/12/23 11:47:52;;;;;;;4.18;1.50;;;;;;;-144.47;84.43;60194.91;4982347;28;20176;-70
2022/12/23 11:50:36;;;;;;;2.85;1.20;;;;;;;-144.47;83.51;60232.72;4968559;28;20037;-69
2022/12/23 11:53:10;;;;;;;3.13;1.63;;;;;;;-144.47;83.45;60236.72;4989649;28;20018;-69